Time;durP1;ratioP1;P1;durP2;ratioP2;P2;SDS_P1;SDS_P2;PMS_P1;PMS_P2;Temp;Humidity;BMP_temperature;BMP_pressure;BME280_temperature;BME280_humidity;BME280_pressure;Samples;Min_cycle;Max_cycle;Signal;HPM_P1;HPM_P2
2021/11/18 00:00:43;;;;;;;62.85;31.75;;;;;;;-1.84;79.44;141827.89;1835019;77;22133;-61
2021/11/18 00:03:21;;;;;;;62.40;30.92;;;;;;;-1.85;79.47;141826.66;1834887;77;22132;-60
2021/11/18 00:06:22;;;;;;;71.45;33.35;;;;;;;-1.84;79.46;141827.89;1834176;77;22173;-59
2021/11/18 00:08:57;;;;;;;69.80;35.68;;;;;;;-1.85;79.48;141825.44;1819424;77;27962;-59
2021/11/18 00:11:55;;;;;;;65.80;33.35;;;;;;;-1.80;79.40;141837.84;1853530;77;22123;-61
2021/11/18 00:14:31;;;;;;;64.50;31.20;;;;;;;-1.80;79.36;141837.84;1834787;77;22148;-60
2021/11/18 00:17:11;;;;;;;61.88;31.85;;;;;;;-1.82;79.35;141832.88;1853577;77;22159;-61
2021/11/18 00:19:46;;;;;;;63.10;30.68;;;;;;;-1.82;79.37;141832.88;1853588;77;22131;-57
2021/11/18 00:22:21;;;;;;;62.08;30.52;;;;;;;-1.83;79.32;141830.36;1834984;77;22120;-57
2021/11/18 00:24:57;;;;;;;68.85;31.27;;;;;;;-1.86;79.35;141824.16;1834777;77;22201;-59
2021/11/18 00:27:32;;;;;;;65.08;30.35;;;;;;;-1.88;79.38;141817.95;1853558;77;22159;-57
2021/11/18 00:30:14;;;;;;;68.20;31.23;;;;;;;-1.90;79.45;141813.03;1853511;77;22124;-57
2021/11/18 00:32:50;;;;;;;64.17;32.28;;;;;;;-1.90;79.42;141814.25;1834927;77;22160;-59
2021/11/18 00:35:28;;;;;;;72.55;33.50;;;;;;;-1.92;79.48;141808.06;1835003;77;22132;-58
2021/11/18 00:38:22;;;;;;;62.78;31.52;;;;;;;-1.91;79.49;141810.52;1834938;77;22579;-58
2021/11/18 00:40:58;;;;;;;63.35;30.45;;;;;;;-1.92;79.47;141809.28;1834839;77;22129;-59
2021/11/18 00:43:34;;;;;;;61.85;30.10;;;;;;;-1.90;79.43;141814.25;1853666;77;22546;-59
2021/11/18 00:46:32;;;;;;;59.03;31.82;;;;;;;-1.86;79.35;141822.92;1837740;77;28436;-62
2021/11/18 00:49:25;;;;;;;54.70;27.75;;;;;;;-1.77;79.15;141846.52;1834994;77;20356;-61
2021/11/18 00:52:00;;;;;;;53.63;26.82;;;;;;;-1.76;78.98;141848.97;1835039;77;22152;-61
2021/11/18 00:54:35;;;;;;;58.95;28.10;;;;;;;-1.75;78.81;141850.25;1853658;77;22131;-62
2021/11/18 00:57:16;;;;;;;55.73;27.15;;;;;;;-1.72;78.69;141856.45;1834241;77;22156;-60
2021/11/18 00:59:51;;;;;;;57.62;29.25;;;;;;;-1.70;78.56;141862.66;1853604;77;22148;-62
2021/11/18 01:02:46;;;;;;;56.10;25.45;;;;;;;-1.70;78.44;141862.66;1843425;77;22152;-63
2021/11/18 01:05:25;;;;;;;54.83;30.88;;;;;;;-1.69;78.35;141863.89;1819418;77;28006;-63
2021/11/18 01:08:01;;;;;;;54.63;25.35;;;;;;;-1.62;78.23;141882.50;1834984;77;22125;-64
2021/11/18 01:10:47;;;;;;;48.50;27.80;;;;;;;-1.61;78.03;141884.97;1837814;77;27984;-64
2021/11/18 01:13:30;;;;;;;44.77;25.08;;;;;;;-1.52;77.78;141904.88;1834188;77;22160;-63
2021/11/18 01:16:33;;;;;;;46.95;24.27;;;;;;;-1.52;77.61;141904.88;1834143;77;22140;-60
2021/11/18 01:19:09;;;;;;;48.58;25.82;;;;;;;-1.52;77.42;141904.88;1835051;77;22152;-61
2021/11/18 01:22:07;;;;;;;47.33;27.37;;;;;;;-1.54;77.33;141902.36;1837806;77;28018;-61
2021/11/18 01:24:43;;;;;;;49.77;28.25;;;;;;;-1.49;77.25;141912.31;1819614;77;27995;-60
2021/11/18 01:27:18;;;;;;;47.55;26.87;;;;;;;-1.39;77.04;141937.13;1853635;77;22159;-60
2021/11/18 01:30:20;;;;;;;50.63;25.97;;;;;;;-1.40;76.80;141934.62;1834984;77;22642;-60
2021/11/18 01:32:57;;;;;;;46.90;24.85;;;;;;;-1.43;76.67;141928.41;1835018;77;22156;-59
2021/11/18 01:35:53;;;;;;;49.18;27.80;;;;;;;-1.46;76.62;141920.97;1819444;77;28032;-58
2021/11/18 01:38:31;;;;;;;46.50;24.65;;;;;;;-1.40;76.53;141934.62;1835024;77;22128;-63
2021/11/18 01:41:12;;;;;;;48.13;26.87;;;;;;;-1.44;76.44;141924.72;1819620;77;28122;-62
2021/11/18 01:44:24;;;;;;;46.58;26.00;;;;;;;-1.36;76.29;141944.56;1835059;77;22160;-63
2021/11/18 01:47:13;;;;;;;47.33;25.15;;;;;;;-1.40;76.15;141934.62;1834992;77;22129;-60
2021/11/18 01:50:11;;;;;;;45.88;24.72;;;;;;;-1.43;76.20;141927.19;1835013;77;20210;-57
2021/11/18 01:53:13;;;;;;;49.15;26.07;;;;;;;-1.47;76.20;141917.28;1834967;77;22160;-57
2021/11/18 01:56:17;;;;;;;57.90;27.65;;;;;;;-1.49;76.23;141912.31;1853566;77;22128;-58
2021/11/18 01:59:28;;;;;;;51.20;26.23;;;;;;;-1.53;76.26;141903.59;1834950;77;22136;-58
2021/11/18 02:02:15;;;;;;;60.85;27.82;;;;;;;-1.55;76.30;141899.89;1835010;77;22132;-57
2021/11/18 02:05:08;;;;;;;54.83;27.80;;;;;;;-1.55;76.35;141898.66;1834795;77;22191;-60
2021/11/18 02:07:47;;;;;;;57.35;27.73;;;;;;;-1.59;76.42;141889.94;1800697;79;22184;-60
2021/11/18 02:10:43;;;;;;;54.10;27.30;;;;;;;-1.64;76.52;141877.53;1853485;77;22663;-60
2021/11/18 02:13:25;;;;;;;56.50;27.20;;;;;;;-1.73;76.71;141855.22;1835031;77;22137;-59
2021/11/18 02:16:19;;;;;;;58.17;27.30;;;;;;;-1.82;77.02;141832.88;1853400;77;22203;-60
2021/11/18 02:19:17;;;;;;;62.10;26.82;;;;;;;-1.88;77.30;141819.23;1834836;77;22184;-58
2021/11/18 02:21:58;;;;;;;59.45;29.85;;;;;;;-1.92;77.52;141808.06;1834204;77;22156;-58
2021/11/18 02:24:42;;;;;;;59.58;31.07;;;;;;;-1.95;77.71;141800.63;1834999;77;22129;-58
2021/11/18 02:27:21;;;;;;;61.15;29.10;;;;;;;-2.00;77.93;141790.67;1835012;77;22153;-62
2021/11/18 02:30:17;;;;;;;65.87;29.90;;;;;;;-2.03;78.06;141783.23;1853558;77;22128;-59
2021/11/18 02:33:14;;;;;;;62.95;30.30;;;;;;;-2.01;78.19;141788.22;1853494;77;22160;-59
2021/11/18 02:35:50;;;;;;;62.88;31.27;;;;;;;-1.98;78.23;141795.66;1853557;77;22123;-57
2021/11/18 02:38:45;;;;;;;63.17;33.67;;;;;;;-1.94;78.22;141804.31;1819370;77;27959;-58
2021/11/18 02:41:22;;;;;;;62.85;32.75;;;;;;;-1.85;78.22;141825.44;1848179;77;22128;-59
2021/11/18 02:43:57;;;;;;;63.73;30.05;;;;;;;-1.82;78.12;141832.88;1835038;77;22132;-60
2021/11/18 02:46:51;;;;;;;58.35;29.40;;;;;;;-1.83;78.09;141831.64;1835164;77;22238;-59
2021/11/18 02:49:50;;;;;;;54.45;28.05;;;;;;;-1.84;78.12;141827.89;1834986;77;22149;-59
2021/11/18 02:52:30;;;;;;;56.02;27.05;;;;;;;-1.86;78.16;141822.92;1835018;77;22133;-58
2021/11/18 02:55:11;;;;;;;54.73;27.32;;;;;;;-1.88;78.19;141817.95;1853560;77;22183;-59
2021/11/18 02:58:12;;;;;;;50.00;28.67;;;;;;;-1.91;78.30;141810.52;1818745;77;28014;-58
2021/11/18 03:01:20;;;;;;;52.33;25.85;;;;;;;-1.85;78.32;141826.66;1834872;77;22191;-59
2021/11/18 03:04:14;;;;;;;51.95;28.50;;;;;;;-1.86;78.34;141824.16;1819306;77;27973;-59
2021/11/18 03:06:52;;;;;;;46.23;26.42;;;;;;;-1.81;78.33;141835.33;1834914;77;22151;-57
2021/11/18 03:09:47;;;;;;;49.67;28.40;;;;;;;-1.84;78.27;141827.89;1819276;77;28446;-59
2021/11/18 03:12:21;;;;;;;52.50;26.85;;;;;;;-1.82;78.31;141832.88;1835013;77;22124;-59
2021/11/18 03:15:20;;;;;;;51.55;29.18;;;;;;;-1.84;78.34;141829.13;1819154;77;28435;-59
2021/11/18 03:18:14;;;;;;;50.15;28.35;;;;;;;-1.82;78.37;141834.09;1819351;77;28009;-59
2021/11/18 03:20:52;;;;;;;48.42;28.73;;;;;;;-1.77;78.37;141845.28;1837804;77;28011;-57
2021/11/18 03:23:47;;;;;;;49.20;27.35;;;;;;;-1.72;78.30;141856.45;1834924;77;22570;-57
2021/11/18 03:26:41;;;;;;;48.60;25.48;;;;;;;-1.78;78.26;141842.77;1853454;77;22160;-62
2021/11/18 03:29:16;;;;;;;51.25;29.52;;;;;;;-1.84;78.34;141827.89;1837801;77;27997;-59
2021/11/18 03:31:51;;;;;;;49.25;27.42;;;;;;;-1.80;78.40;141837.84;1834904;77;22132;-60
2021/11/18 03:34:33;;;;;;;55.33;27.50;;;;;;;-1.83;78.47;141830.36;1834197;77;22185;-59
2021/11/18 03:37:27;;;;;;;48.90;25.08;;;;;;;-1.85;78.58;141825.44;1834966;77;22219;-58
2021/11/18 03:40:24;;;;;;;46.80;25.05;;;;;;;-1.86;78.64;141824.16;1834935;77;22132;-59
2021/11/18 03:43:01;;;;;;;48.98;25.27;;;;;;;-1.88;78.66;141817.95;1821377;77;22219;-57
2021/11/18 03:46:18;;;;;;;51.65;25.25;;;;;;;-1.91;78.79;141810.52;1832957;77;22219;-58
2021/11/18 03:49:16;;;;;;;48.70;25.10;;;;;;;-1.93;78.94;141805.55;1820092;77;22188;-57
2021/11/18 03:52:15;;;;;;;49.03;26.02;;;;;;;-1.96;78.99;141799.34;1834867;77;22579;-58
2021/11/18 03:55:13;;;;;;;48.80;25.70;;;;;;;-1.97;79.10;141798.11;1835008;77;22132;-59
2021/11/18 03:58:26;;;;;;;48.15;24.98;;;;;;;-2.01;79.18;141788.22;1841283;77;22231;-60
2021/11/18 04:01:02;;;;;;;48.30;24.55;;;;;;;-2.03;79.35;141783.23;1853448;77;22567;-59
2021/11/18 04:03:45;;;;;;;49.85;26.20;;;;;;;-2.02;79.46;141784.47;1834052;77;22197;-60
2021/11/18 04:06:20;;;;;;;49.95;26.05;;;;;;;-2.03;79.56;141783.23;1834977;77;22136;-61
2021/11/18 04:08:55;;;;;;;52.05;27.60;;;;;;;-2.04;79.59;141780.73;1834940;77;22214;-58
2021/11/18 04:11:33;;;;;;;56.58;26.23;;;;;;;-2.04;79.64;141779.50;1853510;77;22291;-60
2021/11/18 04:14:31;;;;;;;54.65;27.13;;;;;;;-2.03;79.69;141782.02;1853124;77;22558;-59
2021/11/18 04:17:07;;;;;;;51.28;25.80;;;;;;;-2.05;79.72;141778.27;1829754;77;22156;-60
2021/11/18 04:19:42;;;;;;;47.98;27.65;;;;;;;-2.06;79.78;141775.81;1837776;77;28005;-62
2021/11/18 04:22:18;;;;;;;47.23;27.40;;;;;;;-2.00;79.77;141790.67;1819304;77;27983;-60
2021/11/18 04:25:17;;;;;;;50.05;26.00;;;;;;;-1.93;79.72;141805.55;1853327;77;22626;-60
2021/11/18 04:28:18;;;;;;;50.73;25.95;;;;;;;-1.95;79.67;141800.63;1834107;77;22161;-60
2021/11/18 04:31:17;;;;;;;48.15;25.15;;;;;;;-2.00;79.67;141790.67;1835008;77;22590;-60
2021/11/18 04:34:11;;;;;;;51.90;26.17;;;;;;;-2.03;79.69;141782.02;1853600;77;22151;-60
2021/11/18 04:37:13;;;;;;;50.88;27.90;;;;;;;-2.06;79.67;141775.81;1879246;76;22137;-59
2021/11/18 04:39:48;;;;;;;53.78;29.52;;;;;;;-2.10;79.75;141764.63;1827729;77;28032;-60
2021/11/18 04:42:24;;;;;;;50.05;27.60;;;;;;;-2.10;79.78;141765.86;1853567;77;22582;-62
2021/11/18 04:44:59;;;;;;;53.75;31.33;;;;;;;-2.15;79.85;141753.47;1827789;77;27989;-59
2021/11/18 04:47:34;;;;;;;58.45;29.42;;;;;;;-2.12;79.96;141760.89;1853566;77;22159;-60
2021/11/18 04:50:11;;;;;;;53.73;30.77;;;;;;;-2.14;79.92;141755.92;1837795;77;27983;-59
2021/11/18 04:52:52;;;;;;;53.00;29.90;;;;;;;-2.09;79.94;141768.33;1834161;77;22159;-61
2021/11/18 04:55:35;;;;;;;56.55;27.70;;;;;;;-2.12;79.91;141760.89;1834085;77;22563;-61
2021/11/18 04:58:11;;;;;;;58.50;29.12;;;;;;;-2.16;80.00;141751.00;1835007;77;22128;-60
2021/11/18 05:00:52;;;;;;;56.80;28.15;;;;;;;-2.21;80.11;141739.81;1835126;77;22124;-60
2021/11/18 05:03:34;;;;;;;51.73;31.17;;;;;;;-2.24;80.24;141731.11;1818605;77;28003;-61
2021/11/18 05:06:28;;;;;;;50.10;28.00;;;;;;;-2.18;80.21;141746.03;1834991;77;22129;-62
2021/11/18 05:09:22;;;;;;;49.08;27.45;;;;;;;-2.19;80.27;141743.52;1834920;77;22551;-60
2021/11/18 05:11:59;;;;;;;52.03;26.55;;;;;;;-2.19;80.32;141743.52;1834766;77;22594;-61
2021/11/18 05:14:34;;;;;;;49.00;25.55;;;;;;;-2.19;80.32;141744.80;1853554;77;22132;-59
2021/11/18 05:17:09;;;;;;;48.98;27.70;;;;;;;-2.17;80.30;141747.25;1835028;77;22242;-59
2021/11/18 05:19:44;;;;;;;51.75;30.62;;;;;;;-2.15;80.27;141753.47;1837877;77;28308;-59
2021/11/18 05:22:19;;;;;;;49.05;27.77;;;;;;;-2.06;80.22;141775.81;1853567;77;22128;-61
2021/11/18 05:24:54;;;;;;;49.70;27.07;;;;;;;-2.01;80.14;141788.22;1835026;77;22159;-61
2021/11/18 05:27:29;;;;;;;53.90;27.60;;;;;;;-1.93;80.04;141806.83;1853588;77;22127;-61
2021/11/18 05:30:09;;;;;;;52.85;27.37;;;;;;;-1.85;79.84;141825.44;1835011;77;22128;-62
2021/11/18 05:32:45;;;;;;;52.23;27.73;;;;;;;-1.78;79.69;141842.77;1853675;77;22128;-59
2021/11/18 05:35:22;;;;;;;65.87;28.80;;;;;;;-1.59;79.53;141889.94;1834997;77;22125;-60
2021/11/18 05:38:00;;;;;;;59.23;30.05;;;;;;;-1.34;79.01;141950.78;1853532;77;22542;-59
2021/11/18 05:40:58;;;;;;;55.50;28.80;;;;;;;-0.93;78.48;142048.88;1834741;77;22160;-61
2021/11/18 05:43:35;;;;;;;63.08;35.75;;;;;;;-0.39;77.13;142180.53;1819414;77;38713;-60
2021/11/18 05:46:36;;;;;;;64.95;33.73;;;;;;;-0.16;75.11;142236.45;1834999;77;22169;-61
2021/11/18 05:49:36;;;;;;;67.95;30.82;;;;;;;-0.18;74.77;142230.23;1853470;77;22212;-59
2021/11/18 05:52:12;;;;;;;62.80;32.38;;;;;;;-0.15;74.14;142238.97;1835004;77;22128;-59
2021/11/18 05:55:09;;;;;;;66.87;32.35;;;;;;;0.29;73.61;142344.61;1834843;77;22156;-60
2021/11/18 05:57:46;;;;;;;54.93;30.55;;;;;;;0.95;72.41;142505.05;1853554;77;22247;-61
2021/11/18 06:00:30;;;;;;;60.60;31.27;;;;;;;1.93;70.22;142745.25;1824803;77;22644;-63
2021/11/18 06:03:27;;;;;;;58.58;31.90;;;;;;;3.07;66.50;143020.53;1834904;77;22140;-62
2021/11/18 06:06:24;;;;;;;63.83;32.08;;;;;;;4.04;62.81;143257.44;1834945;77;22172;-65
2021/11/18 06:09:19;;;;;;;59.33;32.08;;;;;;;4.81;60.17;143445.87;1819562;77;22680;-63
2021/11/18 06:12:00;;;;;;;61.68;33.00;;;;;;;5.49;57.06;143611.92;1853415;77;22187;-63
2021/11/18 06:14:35;;;;;;;54.08;33.10;;;;;;;6.03;55.67;143743.13;1853562;77;22160;-63
2021/11/18 06:17:16;;;;;;;56.55;30.88;;;;;;;6.54;52.96;143868.16;1834042;77;22192;-62
2021/11/18 06:19:51;;;;;;;55.17;31.05;;;;;;;7.04;51.79;143990.66;1834989;77;22213;-63
2021/11/18 06:22:27;;;;;;;57.48;35.20;;;;;;;7.53;50.30;144110.77;1837748;77;28441;-64
2021/11/18 06:25:12;;;;;;;59.38;32.95;;;;;;;8.16;48.42;144263.42;1834150;77;22188;-64
2021/11/18 06:28:09;;;;;;;59.00;31.82;;;;;;;8.51;47.44;144349.84;1834964;77;22579;-62
2021/11/18 06:31:09;;;;;;;67.05;35.15;;;;;;;8.98;45.67;144463.81;1824651;77;22231;-69
2021/11/18 06:33:45;;;;;;;56.10;34.13;;;;;;;9.40;44.73;144566.56;1853314;77;22167;-69
2021/11/18 06:36:40;;;;;;;49.65;30.82;;;;;;;9.76;43.68;144656.78;1826740;77;22190;-63
2021/11/18 06:39:15;;;;;;;58.70;35.38;;;;;;;10.25;42.86;144774.63;1834987;77;22206;-64
2021/11/18 06:42:11;;;;;;;51.50;33.65;;;;;;;10.67;41.41;144877.53;1834870;77;22156;-62
2021/11/18 06:44:47;;;;;;;56.63;33.88;;;;;;;10.95;40.74;144947.77;1853518;77;22164;-64
2021/11/18 06:47:28;;;;;;;53.52;31.30;;;;;;;11.24;39.79;145018.03;1834281;77;22155;-62
2021/11/18 06:50:04;;;;;;;61.85;34.65;;;;;;;11.49;38.78;145080.77;1834920;77;22156;-62
2021/11/18 06:53:00;;;;;;;61.90;35.23;;;;;;;11.64;38.62;145115.94;1834916;77;22578;-62
2021/11/18 06:55:35;;;;;;;60.35;36.75;;;;;;;11.78;38.10;145151.09;1853576;77;22155;-64
2021/11/18 06:58:10;;;;;;;64.58;37.40;;;;;;;11.97;37.51;145196.34;1834924;77;22161;-65
2021/11/18 07:01:05;;;;;;;64.27;34.65;;;;;;;12.05;37.65;145216.42;1833431;77;22589;-62
2021/11/18 07:04:02;;;;;;;60.80;36.95;;;;;;;12.19;37.54;145251.59;1803189;77;28127;-62
2021/11/18 07:06:56;;;;;;;52.85;36.23;;;;;;;12.81;36.70;145404.83;1803723;77;28047;-62
2021/11/18 07:09:31;;;;;;;57.35;33.67;;;;;;;13.23;35.46;145507.89;1836927;77;22597;-64
